Saratoga, Wyoming
Current Conditions -  °F | °C
As of 6:15 AM on Thursday 27 Nov 2014 (Local Time) from KSAA Reporting Station
Clear Clear  
Wind Chill: 33°   Ceiling: Unl
Heat Index: 41°   Visibility: 10mi
Dew Point: 21°   Wind: 14mph
Humidity: 45%   Direction: 230°SW
Pressure: 30.3"   Gusts: 21mph
Location:  41.45°N, 106.81°W
Report Text: KSAA 271315Z AUTO 23012G18KT 10SM CLR 05/M06 A3030 RMK AO2
Loading
Personal Weather Stations






























Interactive Weather Map New forecast layout! Learn more

10-Day Weather Forecast

Advertisements
Track Severe Weather on mobile